Tarrant West's Hourly Summary for Monday, May 14, 2018
Hour Temp
(f)
RH
(%)
Solar Rad.
(MJ/m2)
Rainfall
(in)
Wind
(mph)
5/14/2018 12:00 AM 74 74 19.95 0 0
5/14/2018 1:00 AM 75 73 19.95 0 0
5/14/2018 2:00 AM 75 74 19.95 0 0
5/14/2018 3:00 AM 74 78 19.95 0 0
5/14/2018 4:00 AM 73 81 19.95 0 0
5/14/2018 5:00 AM 72 84 19.95 0 0
5/14/2018 6:00 AM 71 88 19.95 0 0
5/14/2018 7:00 AM 71 88 19.95 0 0
5/14/2018 8:00 AM 73 83 19.95 0 0
5/14/2018 9:00 AM 76 76 19.95 0 0
5/14/2018 10:00 AM 78 68 19.95 0 0
5/14/2018 11:00 AM 81 63 19.95 0 0
5/14/2018 12:00 PM 83 59 19.95 0 0
5/14/2018 1:00 PM 84 58 19.95 0 0
5/14/2018 2:00 PM 85 56 19.95 0 0
5/14/2018 3:00 PM 84 56 19.95 0 0
5/14/2018 4:00 PM 84 56 19.95 0 0
5/14/2018 5:00 PM 85 55 19.95 0 0
5/14/2018 6:00 PM 85 53 19.95 0 0
5/14/2018 7:00 PM 83 56 19.95 0 0
5/14/2018 8:00 PM 80 59 19.95 0 0
5/14/2018 9:00 PM 79 63 19.95 0 0
5/14/2018 10:00 PM 77 67 19.95 0 0
5/14/2018 11:00 PM 76 69 19.95 0 0
Data Summary 78 68 478.80 0.00 0.00